createdAt,value
2017-08-29T00:01:51.486Z,19.70
2017-08-29T00:04:19.563Z,19.70
2017-08-29T00:06:48.460Z,19.70
2017-08-29T00:09:16.915Z,19.60
2017-08-29T00:11:45.011Z,19.60
2017-08-29T00:14:13.123Z,19.50
2017-08-29T00:16:42.078Z,19.50
2017-08-29T00:19:10.879Z,19.50
2017-08-29T00:21:38.951Z,19.50
2017-08-29T00:24:07.430Z,19.40
2017-08-29T00:26:36.005Z,19.40
2017-08-29T00:29:04.039Z,19.40
2017-08-29T00:31:32.530Z,19.40
2017-08-29T00:34:01.023Z,19.30
2017-08-29T00:36:29.521Z,19.20
2017-08-29T00:38:57.593Z,19.20
2017-08-29T00:41:25.686Z,19.00
2017-08-29T00:43:53.770Z,19.10
2017-08-29T00:46:22.264Z,19.20
2017-08-29T00:48:50.339Z,19.10
2017-08-29T00:51:18.448Z,18.90
2017-08-29T00:53:46.919Z,18.90
2017-08-29T00:56:15.764Z,19.00
2017-08-29T00:58:43.855Z,19.00
2017-08-29T01:01:12.493Z,19.00
2017-08-29T01:03:40.542Z,18.90
2017-08-29T01:06:08.613Z,19.00
2017-08-29T01:08:36.723Z,19.00
2017-08-29T01:11:04.790Z,18.90
2017-08-29T01:13:32.861Z,18.90
2017-08-29T01:16:00.974Z,18.90
2017-08-29T02:50:49.982Z,18.00
2017-08-29T02:53:18.054Z,18.00
2017-08-29T02:55:46.175Z,17.90
2017-08-29T02:58:14.252Z,17.90
2017-08-29T03:00:43.124Z,17.70
2017-08-29T03:03:11.199Z,17.80
2017-08-29T03:05:40.068Z,17.80
2017-08-29T03:08:08.142Z,17.90
2017-08-29T03:10:36.255Z,17.90
2017-08-29T03:13:05.095Z,17.90
2017-08-29T03:15:33.165Z,17.90
2017-08-29T03:18:01.262Z,17.90
2017-08-29T03:20:29.338Z,17.80
2017-08-29T03:22:57.460Z,17.80
2017-08-29T03:25:26.303Z,17.80
2017-08-29T03:27:54.374Z,17.80
2017-08-29T03:30:23.234Z,17.90
2017-08-29T03:32:51.331Z,17.80
2017-08-29T03:35:20.227Z,17.80
2017-08-29T03:37:48.679Z,17.80
2017-08-29T03:40:16.764Z,17.80
2017-08-29T03:42:44.955Z,17.80
2017-08-29T03:45:13.016Z,17.80
2017-08-29T03:47:41.864Z,17.80
2017-08-29T03:50:09.967Z,17.70
2017-08-29T03:52:38.038Z,17.70
2017-08-29T03:55:06.140Z,17.60
2017-08-29T03:57:34.241Z,17.70
2017-08-29T04:00:02.316Z,17.50
2017-08-29T04:02:30.416Z,17.50
2017-08-29T04:04:58.514Z,17.40
2017-08-29T04:07:27.370Z,17.40
2017-08-29T04:09:55.475Z,17.30
2017-08-29T04:12:23.543Z,17.30
2017-08-29T04:14:51.638Z,17.40
2017-08-29T04:17:19.724Z,17.40
2017-08-29T04:19:47.828Z,17.30
2017-08-29T04:22:16.308Z,17.40
2017-08-29T04:24:44.782Z,17.40
2017-08-29T04:27:12.878Z,17.40
2017-08-29T04:29:40.983Z,17.30
2017-08-29T04:32:09.058Z,17.30
2017-08-29T04:34:37.160Z,17.30
2017-08-29T04:37:06.052Z,17.30
2017-08-29T04:39:34.908Z,17.30
2017-08-29T04:42:02.973Z,17.30
2017-08-29T04:44:31.115Z,17.30
2017-08-29T04:46:59.218Z,17.30
2017-08-29T04:49:27.290Z,17.30
2017-08-29T04:51:55.474Z,17.30
2017-08-29T04:54:24.308Z,17.40
2017-08-29T04:56:52.845Z,17.40
2017-08-29T04:59:20.932Z,17.40
2017-08-29T05:01:49.767Z,17.40
2017-08-29T05:04:18.610Z,17.50
2017-08-29T05:06:47.487Z,17.50
2017-08-29T05:09:15.967Z,17.60
2017-08-29T05:11:44.039Z,17.60
2017-08-29T05:14:12.514Z,17.70
2017-08-29T05:16:41.378Z,17.70
2017-08-29T05:19:09.451Z,17.80
2017-08-29T05:21:37.527Z,17.80
2017-08-29T05:24:05.631Z,17.90
2017-08-29T05:26:34.479Z,17.90
2017-08-29T05:29:02.560Z,18.00
2017-08-29T05:31:30.768Z,18.00
2017-08-29T05:33:58.831Z,18.10
2017-08-29T05:36:27.014Z,18.20
2017-08-29T05:38:55.483Z,18.20
2017-08-29T05:41:23.954Z,18.30
2017-08-29T05:43:52.424Z,18.40
2017-08-29T05:46:20.914Z,18.50
2017-08-29T05:48:49.383Z,18.60
2017-08-29T05:51:18.243Z,18.60
2017-08-29T05:53:46.338Z,18.70
2017-08-29T05:56:15.174Z,18.80
2017-08-29T05:58:43.279Z,19.00
2017-08-29T06:01:11.377Z,19.10
2017-08-29T06:03:39.442Z,19.20
2017-08-29T06:06:07.562Z,19.20
2017-08-29T06:08:35.643Z,19.30
2017-08-29T06:11:04.550Z,19.30
2017-08-29T06:13:32.622Z,19.40
2017-08-29T06:16:00.698Z,19.60
2017-08-29T06:18:28.843Z,19.70
2017-08-29T06:20:56.918Z,19.90
2017-08-29T06:23:24.991Z,19.90
2017-08-29T06:25:53.094Z,19.90
2017-08-29T06:28:21.166Z,20.00
2017-08-29T06:30:49.241Z,20.00
2017-08-29T06:33:17.340Z,20.10
2017-08-29T06:35:45.432Z,20.20
2017-08-29T06:38:13.507Z,20.30
2017-08-29T06:40:42.412Z,20.40
2017-08-29T06:43:10.856Z,20.50
2017-08-29T06:45:39.327Z,20.40
2017-08-29T06:48:07.426Z,20.50
2017-08-29T06:50:35.522Z,20.60
2017-08-29T06:53:03.615Z,20.70
2017-08-29T06:55:31.718Z,20.80
2017-08-29T06:57:59.790Z,20.80
2017-08-29T07:00:27.882Z,20.80
2017-08-29T07:02:55.984Z,20.80
2017-08-29T07:05:24.055Z,21.00
2017-08-29T07:07:52.159Z,21.00
2017-08-29T07:10:20.626Z,21.20
2017-08-29T07:12:48.703Z,21.20
2017-08-29T07:15:17.576Z,21.30
2017-08-29T07:17:45.647Z,21.30
2017-08-29T07:20:14.528Z,21.50
2017-08-29T07:22:42.706Z,21.50
2017-08-29T07:25:11.505Z,21.60
2017-08-29T07:27:39.615Z,21.70
2017-08-29T07:30:08.115Z,21.80
2017-08-29T07:32:36.191Z,21.90
2017-08-29T07:35:04.273Z,22.00
2017-08-29T07:37:32.370Z,22.20
2017-08-29T07:40:00.471Z,22.20
2017-08-29T07:42:28.545Z,22.40
2017-08-29T07:44:56.627Z,22.50
2017-08-29T07:47:25.500Z,22.70
2017-08-29T07:49:53.597Z,22.80
2017-08-29T07:52:21.711Z,23.00
2017-08-29T07:54:49.791Z,23.20
2017-08-29T07:57:17.892Z,23.30
2017-08-29T07:59:45.982Z,23.40
2017-08-29T08:02:14.054Z,23.40
2017-08-29T08:04:42.149Z,23.40
2017-08-29T08:07:10.638Z,23.30
2017-08-29T08:09:38.730Z,23.60
2017-08-29T08:12:06.806Z,23.80
2017-08-29T08:14:34.921Z,23.80
2017-08-29T08:17:03.022Z,24.00
2017-08-29T08:19:31.504Z,24.10
2017-08-29T08:21:59.604Z,24.10
2017-08-29T08:24:28.074Z,24.40
2017-08-29T08:26:56.174Z,24.40
2017-08-29T08:29:24.526Z,24.50
2017-08-29T08:31:52.624Z,24.60
2017-08-29T08:34:20.710Z,24.80
2017-08-29T08:36:49.571Z,25.00
2017-08-29T08:39:18.410Z,25.30
2017-08-29T08:41:46.499Z,25.20
2017-08-29T08:44:14.599Z,25.20
2017-08-29T08:46:42.674Z,25.50
2017-08-29T08:49:10.771Z,25.70
2017-08-29T08:51:38.867Z,25.90
2017-08-29T08:54:06.963Z,25.90
2017-08-29T08:56:35.890Z,26.10
2017-08-29T08:59:03.923Z,26.20
2017-08-29T09:01:32.042Z,26.20
2017-08-29T09:04:00.110Z,26.90
2017-08-29T09:06:28.183Z,27.00
2017-08-29T09:08:56.283Z,27.20
2017-08-29T09:11:24.364Z,27.20
2017-08-29T09:13:52.471Z,27.30
2017-08-29T09:16:20.552Z,27.70
2017-08-29T09:18:48.646Z,27.70
2017-08-29T09:21:16.747Z,27.80
2017-08-29T09:23:44.827Z,28.00
2017-08-29T09:26:12.939Z,27.90
2017-08-29T09:28:41.003Z,27.90
2017-08-29T09:31:09.085Z,28.00
2017-08-29T09:33:37.178Z,27.90
2017-08-29T09:36:05.275Z,27.90
2017-08-29T09:38:33.347Z,28.40
2017-08-29T09:41:01.835Z,28.60
2017-08-29T09:43:29.911Z,28.90
2017-08-29T09:45:58.006Z,28.90
2017-08-29T09:48:26.102Z,29.30
2017-08-29T09:50:54.179Z,29.60
2017-08-29T09:53:22.284Z,29.70
2017-08-29T09:55:50.358Z,29.70
2017-08-29T09:58:18.458Z,30.40
2017-08-29T10:00:46.534Z,30.30
2017-08-29T10:03:14.639Z,30.20
2017-08-29T10:05:42.751Z,30.20
2017-08-29T10:08:10.827Z,30.70
2017-08-29T10:10:38.903Z,30.90
2017-08-29T10:13:06.998Z,30.90
2017-08-29T10:15:35.843Z,31.20
2017-08-29T10:18:03.951Z,31.20
2017-08-29T10:20:32.484Z,31.60
2017-08-29T10:23:00.521Z,31.50
2017-08-29T10:25:28.623Z,31.40
2017-08-29T10:27:56.704Z,31.40
2017-08-29T10:30:24.784Z,31.60
2017-08-29T10:32:52.895Z,32.10
2017-08-29T10:35:20.970Z,32.00
2017-08-29T10:37:49.046Z,32.00
2017-08-29T10:40:17.154Z,32.00
2017-08-29T10:42:45.226Z,32.10
2017-08-29T10:45:15.500Z,32.30
2017-08-29T10:47:43.604Z,32.30
2017-08-29T10:50:11.710Z,32.30
2017-08-29T10:52:39.787Z,32.50
2017-08-29T10:55:07.858Z,32.50
2017-08-29T10:57:36.306Z,32.60
2017-08-29T11:00:04.378Z,32.70
2017-08-29T11:02:32.459Z,32.90
2017-08-29T11:05:00.967Z,33.00
2017-08-29T11:07:29.072Z,33.00
2017-08-29T11:09:57.155Z,33.10
2017-08-29T11:12:25.994Z,33.50
2017-08-29T11:14:54.099Z,33.50
2017-08-29T11:17:22.174Z,33.90
2017-08-29T11:19:50.258Z,34.10
2017-08-29T11:22:19.126Z,33.90
2017-08-29T11:24:47.208Z,33.90
2017-08-29T11:27:15.318Z,34.30
2017-08-29T11:29:43.399Z,34.20
2017-08-29T11:32:11.466Z,34.00
2017-08-29T11:34:39.566Z,34.00
2017-08-29T11:37:07.642Z,34.30
2017-08-29T11:39:35.743Z,34.60
2017-08-29T11:42:03.839Z,34.60
2017-08-29T11:44:31.955Z,34.60
2017-08-29T11:47:00.431Z,34.20
2017-08-29T11:49:28.513Z,34.30
2017-08-29T11:51:56.611Z,34.70
2017-08-29T11:54:24.731Z,34.70
2017-08-29T11:56:53.226Z,34.60
2017-08-29T11:59:21.306Z,34.50
2017-08-29T12:01:49.383Z,35.00
2017-08-29T12:04:17.490Z,35.00
2017-08-29T12:06:45.562Z,35.40
2017-08-29T12:09:13.661Z,35.10
2017-08-29T12:11:41.749Z,35.00
2017-08-29T12:14:09.827Z,35.00
2017-08-29T12:16:37.930Z,35.10
2017-08-29T12:19:06.006Z,35.80
2017-08-29T12:21:34.086Z,36.10
2017-08-29T12:24:02.187Z,36.10
2017-08-29T12:26:30.705Z,36.20
2017-08-29T12:28:58.738Z,36.10
2017-08-29T12:31:26.859Z,36.40
2017-08-29T12:33:54.931Z,36.40
2017-08-29T12:36:23.011Z,36.40
2017-08-29T12:38:51.105Z,36.40
2017-08-29T12:41:19.219Z,37.00
2017-08-29T12:43:47.308Z,37.20
2017-08-29T12:46:15.380Z,37.10
2017-08-29T12:48:43.470Z,37.20
2017-08-29T12:51:11.556Z,37.20
2017-08-29T12:53:39.672Z,37.40
2017-08-29T12:56:07.746Z,37.60
2017-08-29T12:58:35.822Z,37.60
2017-08-29T13:01:03.926Z,38.20
2017-08-29T13:03:32.009Z,38.10
2017-08-29T13:06:00.480Z,37.90
2017-08-29T13:08:28.586Z,37.20
2017-08-29T13:10:56.659Z,37.70
2017-08-29T13:13:24.732Z,37.40
2017-08-29T13:15:52.832Z,37.60
2017-08-29T13:18:20.902Z,38.00
2017-08-29T13:20:49.008Z,38.10
2017-08-29T13:23:17.111Z,38.00
2017-08-29T13:25:45.182Z,38.20
2017-08-29T13:28:13.268Z,38.40
2017-08-29T13:30:41.776Z,38.50
2017-08-29T13:33:09.854Z,38.30
2017-08-29T13:35:37.951Z,38.30
2017-08-29T13:38:06.035Z,38.30
2017-08-29T13:40:34.129Z,38.20
2017-08-29T13:43:02.219Z,38.30
2017-08-29T13:45:30.290Z,38.30
2017-08-29T13:47:58.436Z,39.20
2017-08-29T13:50:26.507Z,38.80
2017-08-29T13:52:54.618Z,38.70
2017-08-29T13:55:23.471Z,38.80
2017-08-29T13:57:51.554Z,38.80
2017-08-29T14:00:19.643Z,39.10
2017-08-29T14:02:48.489Z,38.80
2017-08-29T14:05:16.583Z,39.20
2017-08-29T14:07:44.657Z,39.00
2017-08-29T14:10:12.766Z,38.90
2017-08-29T14:12:40.843Z,38.50
2017-08-29T14:15:08.960Z,38.70
2017-08-29T14:17:37.055Z,38.80
2017-08-29T14:20:05.159Z,38.80
2017-08-29T14:22:33.230Z,39.00
2017-08-29T14:25:01.329Z,39.10
2017-08-29T14:27:29.426Z,39.10
2017-08-29T14:29:57.502Z,39.30
2017-08-29T14:32:25.596Z,39.50
2017-08-29T14:34:53.658Z,39.50
2017-08-29T14:37:27.519Z,39.20
2017-08-29T14:39:55.592Z,39.10
2017-08-29T14:42:23.670Z,39.20
2017-08-29T14:44:52.252Z,39.30
2017-08-29T14:47:33.106Z,38.50
2017-08-29T14:50:01.208Z,38.50
2017-08-29T14:52:29.304Z,38.70
2017-08-29T14:54:57.379Z,39.10
2017-08-29T14:57:25.475Z,39.10
2017-08-29T14:59:53.602Z,39.30
2017-08-29T15:02:21.643Z,39.40
2017-08-29T15:04:49.730Z,39.40
2017-08-29T15:07:18.315Z,39.10
2017-08-29T15:09:46.346Z,39.10
2017-08-29T15:12:15.197Z,38.60
2017-08-29T15:14:43.295Z,38.50
2017-08-29T15:17:11.358Z,39.30
2017-08-29T15:19:39.455Z,39.20
2017-08-29T15:22:07.551Z,39.10
2017-08-29T15:24:35.628Z,39.10
2017-08-29T15:27:03.718Z,38.90
2017-08-29T15:29:31.794Z,38.60
2017-08-29T15:31:59.900Z,38.50
2017-08-29T15:34:28.763Z,38.30
2017-08-29T15:36:57.612Z,38.30
2017-08-29T15:39:26.115Z,38.40
2017-08-29T15:41:54.196Z,38.40
2017-08-29T15:44:22.299Z,38.30
2017-08-29T15:46:50.843Z,38.80
2017-08-29T15:49:18.902Z,38.80
2017-08-29T15:51:46.990Z,38.90
2017-08-29T15:54:15.063Z,39.00
2017-08-29T15:56:43.575Z,38.30
2017-08-29T15:59:11.650Z,38.30
2017-08-29T16:01:40.122Z,37.90
2017-08-29T16:04:08.223Z,37.90
2017-08-29T16:06:36.751Z,37.70
2017-08-29T16:09:05.570Z,37.60
2017-08-29T16:11:33.651Z,37.50
2017-08-29T16:14:01.750Z,37.10
2017-08-29T16:16:29.847Z,36.80
2017-08-29T16:18:57.919Z,36.00
2017-08-29T16:21:26.022Z,35.90
2017-08-29T16:23:54.487Z,35.70
2017-08-29T16:26:22.583Z,35.70
2017-08-29T16:28:50.669Z,35.60
2017-08-29T16:31:18.755Z,35.50
2017-08-29T16:33:46.855Z,35.20
2017-08-29T16:36:14.934Z,35.10
2017-08-29T16:38:43.038Z,34.70
2017-08-29T16:41:11.129Z,34.30
2017-08-29T16:43:39.202Z,33.60
2017-08-29T16:46:07.314Z,33.10
2017-08-29T16:48:35.396Z,32.60
2017-08-29T16:51:03.476Z,32.60
2017-08-29T16:53:31.580Z,31.50
2017-08-29T16:56:00.418Z,31.30
2017-08-29T16:58:28.539Z,31.00
2017-08-29T17:00:57.010Z,30.90
2017-08-29T17:03:25.094Z,30.60
2017-08-29T17:05:53.190Z,30.40
2017-08-29T17:08:21.271Z,30.20
2017-08-29T17:10:49.379Z,30.00
2017-08-29T17:13:17.496Z,29.90
2017-08-29T17:15:45.558Z,29.90
2017-08-29T17:18:14.066Z,29.60
2017-08-29T17:20:42.151Z,29.40
2017-08-29T17:23:10.618Z,29.10
2017-08-29T17:25:38.715Z,29.20
2017-08-29T17:28:06.789Z,28.70
2017-08-29T17:30:34.920Z,28.50
2017-08-29T17:33:03.043Z,28.20
2017-08-29T17:35:31.131Z,28.00
2017-08-29T17:37:59.258Z,27.90
2017-08-29T17:40:28.105Z,27.80
2017-08-29T17:42:57.168Z,27.70
2017-08-29T17:45:25.638Z,27.60
2017-08-29T17:47:53.719Z,27.40
2017-08-29T17:50:21.844Z,27.20
2017-08-29T17:52:49.980Z,27.00
2017-08-29T17:55:18.047Z,26.80
2017-08-29T17:57:46.163Z,26.60
2017-08-29T18:00:14.287Z,26.50
2017-08-29T18:02:42.762Z,26.30
2017-08-29T18:05:10.902Z,26.10
2017-08-29T18:07:39.734Z,25.90
2017-08-29T18:10:08.220Z,25.80
2017-08-29T18:12:36.344Z,25.70
2017-08-29T18:15:04.422Z,25.50
2017-08-29T18:17:32.495Z,25.30
2017-08-29T18:20:00.622Z,25.30
2017-08-29T18:22:29.147Z,25.20
2017-08-29T18:24:57.995Z,25.00
2017-08-29T18:27:26.071Z,24.90
2017-08-29T18:29:54.191Z,24.70
2017-08-29T18:32:23.094Z,24.60
2017-08-29T18:34:51.183Z,24.60
2017-08-29T18:37:19.354Z,24.50
2017-08-29T18:39:47.807Z,24.50
2017-08-29T18:42:15.927Z,24.40
2017-08-29T18:44:44.007Z,24.50
2017-08-29T18:47:13.251Z,24.50
2017-08-29T18:49:41.404Z,24.40
2017-08-29T18:52:09.479Z,24.40
2017-08-29T18:54:37.565Z,24.40
2017-08-29T18:57:06.802Z,24.40
2017-08-29T18:59:34.880Z,24.40
2017-08-29T19:02:02.994Z,24.40
2017-08-29T19:04:32.055Z,24.40
2017-08-29T19:07:00.131Z,24.40
2017-08-29T19:09:28.556Z,24.30
2017-08-29T19:11:56.630Z,24.30
2017-08-29T19:14:24.761Z,24.20
2017-08-29T19:16:53.594Z,24.10
2017-08-29T19:19:24.664Z,24.10
2017-08-29T19:21:53.130Z,24.10
2017-08-29T19:24:22.003Z,24.10
2017-08-29T19:26:51.275Z,24.10
2017-08-29T19:29:19.403Z,24.20
2017-08-29T19:31:47.871Z,24.10
2017-08-29T19:34:15.947Z,24.10
2017-08-29T19:36:44.568Z,24.10
2017-08-29T19:39:13.376Z,24.00
2017-08-29T19:41:41.944Z,23.90
2017-08-29T19:44:11.066Z,24.00
2017-08-29T19:46:39.927Z,24.00
2017-08-29T19:49:08.026Z,23.80
2017-08-29T19:51:36.103Z,23.80
2017-08-29T19:54:04.606Z,23.60
2017-08-29T19:56:32.687Z,23.50
2017-08-29T19:59:01.534Z,23.50
2017-08-29T20:01:29.688Z,23.50
2017-08-29T20:03:57.752Z,23.50
2017-08-29T20:06:25.830Z,23.60
2017-08-29T20:08:53.956Z,23.50
2017-08-29T20:11:22.026Z,23.40
2017-08-29T20:13:50.591Z,23.50
2017-08-29T20:16:18.699Z,23.40
2017-08-29T20:18:46.775Z,23.40
2017-08-29T20:21:14.911Z,23.40
2017-08-29T20:23:43.759Z,23.50
2017-08-29T20:26:11.843Z,23.40
2017-08-29T20:28:39.943Z,23.40
2017-08-29T20:31:08.014Z,23.40
2017-08-29T20:33:36.535Z,23.40
2017-08-29T20:36:04.654Z,23.40
2017-08-29T20:38:32.800Z,23.30
2017-08-29T20:41:00.870Z,23.30
2017-08-29T20:43:28.951Z,23.30
2017-08-29T20:45:57.075Z,23.20
2017-08-29T20:48:25.154Z,23.20
2017-08-29T20:50:53.271Z,23.20
2017-08-29T20:53:21.400Z,23.20
2017-08-29T20:55:49.470Z,23.20
2017-08-29T20:58:18.114Z,23.20
2017-08-29T21:00:46.547Z,23.20
2017-08-29T21:03:15.392Z,23.20
2017-08-29T21:05:43.517Z,23.20
2017-08-29T21:08:11.587Z,23.10
2017-08-29T21:10:39.662Z,23.10
2017-08-29T21:13:07.791Z,23.10
2017-08-29T21:15:35.863Z,23.10
2017-08-29T21:18:03.951Z,23.00
2017-08-29T21:20:32.078Z,23.10
2017-08-29T21:23:00.194Z,23.10
2017-08-29T21:25:28.276Z,23.00
2017-08-29T21:27:56.370Z,23.00
2017-08-29T21:30:24.443Z,22.90
2017-08-29T21:32:52.538Z,22.90
2017-08-29T21:35:20.644Z,22.90
2017-08-29T21:37:48.714Z,22.90
2017-08-29T21:40:16.811Z,23.00
2017-08-29T21:42:44.938Z,22.90
2017-08-29T21:45:13.003Z,22.80
2017-08-29T21:47:41.097Z,22.80
2017-08-29T21:50:09.194Z,22.70
2017-08-29T21:52:37.262Z,22.70
2017-08-29T21:55:05.754Z,22.70
2017-08-29T21:57:33.854Z,22.70
2017-08-29T22:00:02.383Z,22.70
2017-08-29T22:02:30.870Z,22.60
2017-08-29T22:04:59.706Z,22.70
2017-08-29T22:07:27.812Z,22.70
2017-08-29T22:09:56.278Z,22.60
2017-08-29T22:12:24.390Z,22.60
2017-08-29T22:14:52.475Z,22.60
2017-08-29T22:17:20.546Z,22.60
2017-08-29T22:19:48.645Z,22.50
2017-08-29T22:22:16.710Z,22.50
2017-08-29T22:24:44.814Z,22.50
2017-08-29T22:27:13.664Z,22.50
2017-08-29T22:29:42.159Z,22.50
2017-08-29T22:32:10.630Z,22.50
2017-08-29T22:34:39.503Z,22.40
2017-08-29T22:37:07.978Z,22.40
2017-08-29T22:39:36.058Z,22.40
2017-08-29T22:42:04.963Z,22.40
2017-08-29T22:44:33.030Z,22.40
2017-08-29T22:47:01.568Z,22.40
2017-08-29T22:49:29.672Z,22.30
2017-08-29T22:51:57.746Z,22.30
2017-08-29T22:54:26.251Z,22.20
2017-08-29T22:56:55.110Z,22.20
2017-08-29T22:59:23.192Z,22.10
2017-08-29T23:01:52.815Z,22.00
2017-08-29T23:04:21.287Z,22.00
2017-08-29T23:06:50.134Z,22.00
2017-08-29T23:09:18.240Z,22.00
2017-08-29T23:11:46.739Z,22.10
2017-08-29T23:14:15.578Z,22.00
2017-08-29T23:16:44.471Z,21.90
2017-08-29T23:19:12.526Z,21.90
2017-08-29T23:21:40.994Z,21.90
2017-08-29T23:24:09.486Z,21.80
2017-08-29T23:26:37.590Z,21.90
2017-08-29T23:29:06.439Z,21.80
2017-08-29T23:31:34.550Z,21.80
2017-08-29T23:34:02.626Z,21.90
2017-08-29T23:36:30.698Z,21.90
2017-08-29T23:38:58.849Z,21.90
2017-08-29T23:41:26.918Z,21.90
2017-08-29T23:43:55.110Z,21.90
2017-08-29T23:46:23.571Z,21.90
2017-08-29T23:48:51.651Z,22.00
2017-08-29T23:51:19.726Z,22.00
2017-08-29T23:53:47.822Z,22.00
2017-08-29T23:56:15.898Z,22.00
2017-08-29T23:58:43.996Z,21.90
